createdAt,value
2019-02-04T00:00:20.611Z,-1.34
2019-02-04T00:05:24.645Z,-1.28
2019-02-04T00:10:28.731Z,-1.38
2019-02-04T00:15:33.075Z,-1.62
2019-02-04T00:20:37.368Z,-1.62
2019-02-04T00:25:41.402Z,-1.52
2019-02-04T00:30:45.489Z,-1.63
2019-02-04T00:35:49.561Z,-1.65
2019-02-04T00:40:53.585Z,-1.65
2019-02-04T00:45:57.891Z,-1.78
2019-02-04T00:51:03.104Z,-1.96
2019-02-04T00:56:07.202Z,-1.98
2019-02-04T01:01:11.272Z,-2.01
2019-02-04T01:06:17.390Z,-1.79
2019-02-04T01:11:21.721Z,-2.03
2019-02-04T01:16:25.809Z,-2.19
2019-02-04T01:21:29.909Z,-2.06
2019-02-04T01:26:34.063Z,-2.05
2019-02-04T01:31:38.122Z,-2.25
2019-02-04T01:36:42.263Z,-2.37
2019-02-04T01:41:46.329Z,-2.56
2019-02-04T01:46:51.626Z,-2.51
2019-02-04T01:51:55.756Z,-2.41
2019-02-04T01:56:59.856Z,-2.29
2019-02-04T02:02:04.207Z,-2.29
2019-02-04T02:07:08.644Z,-2.18
2019-02-04T02:12:12.703Z,-2.28
2019-02-04T02:17:26.091Z,-2.10
2019-02-04T02:22:22.670Z,-2.06
2019-02-04T02:27:26.760Z,-1.84
2019-02-04T02:32:30.841Z,-2.06
2019-02-04T02:37:35.561Z,-1.99
2019-02-04T02:42:39.995Z,-2.10
2019-02-04T02:47:44.037Z,-1.81
2019-02-04T02:52:51.165Z,-2.05
2019-02-04T02:57:57.086Z,-2.09
2019-02-04T03:03:01.164Z,-1.92
2019-02-04T03:08:05.185Z,-2.01
2019-02-04T03:13:09.440Z,-1.77
2019-02-04T03:18:13.544Z,-1.94
2019-02-04T03:23:17.609Z,-2.08
2019-02-04T03:28:21.619Z,-1.98
2019-02-04T03:33:25.800Z,-2.14
2019-02-04T03:38:30.068Z,-2.07
2019-02-04T03:43:34.365Z,-2.10
2019-02-04T03:48:38.887Z,-1.85
2019-02-04T03:53:43.146Z,-2.00
2019-02-04T03:58:47.249Z,-1.90
2019-02-04T04:03:51.323Z,-1.86
2019-02-04T04:08:55.444Z,-1.96
2019-02-04T04:13:59.510Z,-1.97
2019-02-04T04:19:03.600Z,-2.06
2019-02-04T04:24:07.646Z,-1.79
2019-02-04T04:29:13.250Z,-1.78
2019-02-04T04:34:17.334Z,-1.89
2019-02-04T04:39:21.461Z,-1.97
2019-02-04T04:44:25.514Z,-1.86
2019-02-04T04:49:29.583Z,-2.10
2019-02-04T04:54:33.748Z,-1.76
2019-02-04T04:59:38.349Z,-1.97
2019-02-04T05:04:42.387Z,-2.26
2019-02-04T05:09:46.511Z,-2.39
2019-02-04T05:14:50.850Z,-2.72
2019-02-04T05:19:54.911Z,-3.00
2019-02-04T05:24:59.008Z,-3.12
2019-02-04T05:30:03.909Z,-3.34
2019-02-04T05:35:08.065Z,-3.49
2019-02-04T05:40:13.465Z,-3.60
2019-02-04T05:45:18.270Z,-3.61
2019-02-04T05:50:22.329Z,-3.69
2019-02-04T05:55:26.409Z,-3.67
2019-02-04T06:00:30.978Z,-3.75
2019-02-04T06:05:35.098Z,-3.92
2019-02-04T06:10:39.405Z,-3.94
2019-02-04T06:15:43.490Z,-3.99
2019-02-04T06:20:47.585Z,-4.07
2019-02-04T06:25:51.663Z,-4.03
2019-02-04T06:30:55.763Z,-4.10
2019-02-04T06:35:59.846Z,-4.06
2019-02-04T06:41:03.915Z,-4.14
2019-02-04T06:46:08.440Z,-4.17
2019-02-04T06:51:12.843Z,-4.15
2019-02-04T06:56:16.993Z,-3.85
2019-02-04T07:01:21.078Z,-3.61
2019-02-04T07:06:25.218Z,-3.49
2019-02-04T07:11:29.331Z,-3.19
2019-02-04T07:16:33.402Z,-3.18
2019-02-04T07:21:37.992Z,-3.42
2019-02-04T07:26:42.067Z,-3.55
2019-02-04T07:31:46.181Z,-3.62
2019-02-04T07:36:50.667Z,-3.57
2019-02-04T07:41:54.847Z,-3.48
2019-02-04T07:47:00.166Z,-3.35
2019-02-04T07:52:04.266Z,-3.25
2019-02-04T07:57:08.337Z,-3.12
2019-02-04T08:02:13.215Z,-2.88
2019-02-04T08:07:17.340Z,-2.55
2019-02-04T08:12:21.442Z,-2.08
2019-02-04T08:17:25.483Z,-1.74
2019-02-04T08:22:30.013Z,-1.47
2019-02-04T08:27:34.090Z,-1.18
2019-02-04T08:32:38.193Z,-0.87
2019-02-04T08:37:42.543Z,-0.74
2019-02-04T08:42:47.016Z,-0.54
2019-02-04T08:47:51.374Z,-0.41
2019-02-04T08:52:55.477Z,-0.23
2019-02-04T08:57:59.535Z,-0.13
2019-02-04T09:03:03.950Z,0.02
2019-02-04T09:08:08.187Z,0.31
2019-02-04T09:13:12.386Z,0.46
2019-02-04T09:18:16.489Z,0.69
2019-02-04T09:23:20.783Z,0.90
2019-02-04T09:28:24.860Z,1.03
2019-02-04T09:33:28.914Z,1.31
2019-02-04T09:38:33.150Z,1.52
2019-02-04T09:43:38.020Z,1.66
2019-02-04T09:48:42.123Z,1.91
2019-02-04T09:53:48.560Z,2.05
2019-02-04T09:58:54.024Z,2.26
2019-02-04T10:03:58.447Z,2.46
2019-02-04T10:09:04.047Z,2.76
2019-02-04T10:14:08.322Z,2.93
2019-02-04T10:19:12.673Z,3.09
2019-02-04T10:24:17.327Z,3.35
2019-02-04T10:29:21.430Z,3.84
2019-02-04T10:34:25.619Z,4.63
2019-02-04T10:39:30.339Z,5.75
2019-02-04T10:44:34.395Z,7.33
2019-02-04T10:49:38.670Z,9.03
2019-02-04T10:54:42.783Z,9.61
2019-02-04T10:59:47.093Z,9.77
2019-02-04T11:04:51.506Z,9.65
2019-02-04T11:09:56.298Z,10.23
2019-02-04T11:15:00.541Z,10.33
2019-02-04T11:20:07.117Z,10.24
2019-02-04T11:25:11.559Z,10.56
2019-02-04T11:30:18.987Z,10.26
2019-02-04T11:35:23.338Z,9.38
2019-02-04T11:40:33.009Z,9.18
2019-02-04T11:45:37.406Z,8.96
2019-02-04T11:50:43.039Z,8.83
2019-02-04T11:55:47.357Z,8.14
2019-02-04T12:00:51.778Z,7.95
2019-02-04T12:05:55.995Z,8.32
2019-02-04T12:11:08.102Z,7.83
2019-02-04T12:16:12.146Z,7.38
2019-02-04T12:21:21.507Z,7.50
2019-02-04T12:26:22.305Z,7.19
2019-02-04T12:31:26.475Z,7.63
2019-02-04T12:36:30.554Z,7.90
2019-02-04T12:41:34.894Z,7.99
2019-02-04T12:46:38.979Z,7.76
2019-02-04T12:51:43.165Z,7.63
2019-02-04T12:56:47.189Z,7.26
2019-02-04T13:01:51.333Z,7.12
2019-02-04T13:06:55.458Z,7.09
2019-02-04T13:11:59.474Z,6.73
2019-02-04T13:17:03.889Z,6.88
2019-02-04T13:22:08.272Z,6.84
2019-02-04T13:27:12.331Z,6.69
2019-02-04T13:32:18.473Z,6.63
2019-02-04T13:37:22.841Z,6.87
2019-02-04T13:42:26.913Z,6.69
2019-02-04T13:47:30.982Z,6.64
2019-02-04T13:52:35.132Z,6.06
2019-02-04T13:57:39.725Z,5.83
2019-02-04T14:02:44.085Z,5.75
2019-02-04T14:07:48.131Z,5.95
2019-02-04T14:12:52.408Z,5.85
2019-02-04T14:17:56.626Z,5.76
2019-02-04T14:23:01.059Z,5.74
2019-02-04T14:28:05.602Z,5.60
2019-02-04T14:33:10.066Z,5.58
2019-02-04T14:38:14.174Z,5.48
2019-02-04T14:43:22.067Z,5.41
2019-02-04T14:49:06.947Z,5.34
2019-02-04T14:54:50.616Z,5.20
2019-02-04T15:00:28.463Z,5.00
2019-02-04T15:05:52.440Z,4.76
2019-02-04T15:11:08.683Z,4.58
2019-02-04T15:16:46.050Z,4.17
2019-02-04T15:22:33.057Z,3.88
2019-02-04T15:28:02.427Z,3.58
2019-02-04T15:33:34.119Z,3.31
2019-02-04T15:39:08.423Z,3.12
2019-02-04T15:44:49.031Z,2.90
2019-02-04T15:50:45.915Z,2.70
2019-02-04T15:55:50.011Z,2.44
2019-02-04T16:00:54.447Z,2.34
2019-02-04T16:05:58.575Z,1.96
2019-02-04T16:11:02.742Z,1.87
2019-02-04T16:16:07.088Z,1.71
2019-02-04T16:21:11.199Z,1.45
2019-02-04T16:26:15.474Z,1.44
2019-02-04T16:31:22.323Z,1.13
2019-02-04T16:36:27.011Z,1.17
2019-02-04T16:41:31.181Z,1.01
2019-02-04T16:46:35.312Z,1.00
2019-02-04T16:51:39.445Z,0.97
2019-02-04T16:56:43.745Z,0.80
2019-02-04T17:01:47.872Z,0.76
2019-02-04T17:06:52.036Z,0.60
2019-02-04T17:11:56.132Z,0.53
2019-02-04T17:17:00.260Z,0.38
2019-02-04T17:22:04.515Z,0.29
2019-02-04T17:27:08.884Z,0.31
2019-02-04T17:32:12.912Z,0.48
2019-02-04T17:37:19.908Z,0.57
2019-02-04T17:42:27.284Z,0.72
2019-02-04T17:47:31.310Z,0.68
2019-02-04T17:52:35.339Z,0.75
2019-02-04T17:57:39.519Z,0.89
2019-02-04T18:02:43.954Z,0.77
2019-02-04T18:07:48.073Z,0.69
2019-02-04T18:12:52.148Z,0.79
2019-02-04T18:17:56.299Z,0.83
2019-02-04T18:23:00.465Z,0.76
2019-02-04T18:28:04.876Z,0.69
2019-02-04T18:33:09.800Z,0.42
2019-02-04T18:38:14.532Z,0.52
2019-02-04T18:43:19.078Z,0.50
2019-02-04T18:48:23.169Z,0.44
2019-02-04T18:53:27.253Z,0.51
2019-02-04T18:58:33.142Z,0.49
2019-02-04T19:03:38.469Z,0.49
2019-02-04T19:08:42.477Z,0.52
2019-02-04T19:13:46.589Z,0.65
2019-02-04T19:18:50.654Z,0.55
2019-02-04T19:23:54.993Z,0.61
2019-02-04T19:28:59.133Z,0.52
2019-02-04T19:34:03.455Z,0.62
2019-02-04T19:39:08.922Z,0.53
2019-02-04T19:44:12.993Z,0.41
2019-02-04T19:49:17.338Z,0.22
2019-02-04T19:54:21.868Z,0.17
2019-02-04T19:59:25.980Z,0.14
2019-02-04T20:04:30.032Z,0.12
2019-02-04T20:09:34.487Z,0.05
2019-02-04T20:14:38.676Z,0.04
2019-02-04T20:19:43.376Z,-0.07
2019-02-04T20:24:47.515Z,-0.03
2019-02-04T20:29:51.657Z,0.04
2019-02-04T20:34:55.779Z,0.08
2019-02-04T20:40:18.426Z,0.20
2019-02-04T20:45:23.518Z,0.29
2019-02-04T20:50:33.581Z,0.13
2019-02-04T20:55:37.678Z,0.24
2019-02-04T21:00:41.811Z,0.04
2019-02-04T21:05:45.953Z,-0.05
2019-02-04T21:10:50.416Z,-0.08
2019-02-04T21:15:54.576Z,-0.04
2019-02-04T21:20:58.664Z,0.12
2019-02-04T21:26:03.133Z,0.12
2019-02-04T21:31:07.881Z,0.27
2019-02-04T21:36:13.300Z,0.23
2019-02-04T21:41:17.333Z,0.09
2019-02-04T21:46:21.480Z,0.14
2019-02-04T21:51:25.496Z,0.15
2019-02-04T21:56:29.861Z,0.12
2019-02-04T22:01:34.010Z,0.05
2019-02-04T22:06:38.045Z,0.02
2019-02-04T22:11:42.224Z,0.02
2019-02-04T22:16:46.758Z,0.19
2019-02-04T22:21:51.067Z,0.19
2019-02-04T22:26:55.068Z,0.30
2019-02-04T22:31:59.466Z,0.28
2019-02-04T22:37:03.964Z,0.16
2019-02-04T22:42:08.360Z,0.25
2019-02-04T22:47:12.456Z,0.14
2019-02-04T22:52:16.489Z,0.03
2019-02-04T22:57:20.698Z,0.00
2019-02-04T23:02:25.144Z,0.09
2019-02-04T23:07:29.467Z,0.08
2019-02-04T23:12:33.539Z,-0.02
2019-02-04T23:17:37.604Z,0.04
2019-02-04T23:22:44.087Z,-0.20
2019-02-04T23:27:47.827Z,-0.25
2019-02-04T23:32:51.895Z,-0.54
2019-02-04T23:37:56.208Z,-0.65
2019-02-04T23:43:00.237Z,-0.48
2019-02-04T23:48:04.726Z,-0.43
2019-02-04T23:53:08.782Z,-0.50
2019-02-04T23:58:13.213Z,-0.38
